createdAt,value
2018-07-15T00:01:11.715Z,101353.09
2018-07-15T00:03:38.900Z,101353.73
2018-07-15T00:06:06.105Z,101358.56
2018-07-15T00:08:33.756Z,101351.19
2018-07-15T00:11:00.937Z,101356.59
2018-07-15T00:13:28.165Z,101348.55
2018-07-15T00:15:56.289Z,101346.95
2018-07-15T00:18:23.684Z,101346.53
2018-07-15T00:20:50.802Z,101352.95
2018-07-15T00:23:17.935Z,101354.93
2018-07-15T00:25:45.095Z,101356.88
2018-07-15T00:28:12.292Z,101362.41
2018-07-15T00:30:39.437Z,101362.05
2018-07-15T00:33:06.539Z,101361.29
2018-07-15T00:35:33.669Z,101364.03
2018-07-15T00:38:00.947Z,101366.64
2018-07-15T00:40:28.361Z,101359.97
2018-07-15T00:42:55.575Z,101355.72
2018-07-15T00:45:22.853Z,101351.92
2018-07-15T00:47:49.978Z,101353.17
2018-07-15T00:50:17.341Z,101355.63
2018-07-15T00:52:44.601Z,101356.59
2018-07-15T00:55:11.797Z,101353.05
2018-07-15T00:57:38.960Z,101351.86
2018-07-15T01:00:06.400Z,101356.14
2018-07-15T01:02:33.717Z,101357.20
2018-07-15T01:05:01.208Z,101354.53
2018-07-15T01:07:28.552Z,101351.63
2018-07-15T01:09:55.809Z,101348.19
2018-07-15T01:12:23.002Z,101346.92
2018-07-15T01:14:50.292Z,101343.77
2018-07-15T01:17:17.490Z,101346.86
2018-07-15T01:19:44.638Z,101346.02
2018-07-15T01:22:12.073Z,101350.98
2018-07-15T01:24:39.192Z,101350.53
2018-07-15T01:27:06.509Z,101353.20
2018-07-15T01:29:33.925Z,101356.00
2018-07-15T01:32:01.106Z,101347.92
2018-07-15T01:34:28.328Z,101346.07
2018-07-15T01:36:55.556Z,101345.23
2018-07-15T01:39:22.793Z,101347.03
2018-07-15T01:41:50.142Z,101344.59
2018-07-15T01:44:18.007Z,101342.74
2018-07-15T01:46:45.092Z,101340.64
2018-07-15T01:49:12.388Z,101340.34
2018-07-15T01:51:39.597Z,101338.56
2018-07-15T01:54:06.813Z,101345.44
2018-07-15T01:56:33.988Z,101343.34
2018-07-15T01:59:01.532Z,101349.45
2018-07-15T02:01:29.290Z,101349.45
2018-07-15T02:03:56.441Z,101354.05
2018-07-15T02:06:23.863Z,101352.39
2018-07-15T02:08:50.969Z,101347.81
2018-07-15T02:11:18.221Z,101346.52
2018-07-15T02:13:45.381Z,101342.44
2018-07-15T02:16:12.620Z,101345.63
2018-07-15T02:18:39.768Z,101345.02
2018-07-15T02:21:08.981Z,101344.08
2018-07-15T02:23:36.087Z,101343.63
2018-07-15T02:26:03.596Z,101339.67
2018-07-15T02:28:30.847Z,101344.67
2018-07-15T02:30:58.181Z,101334.70
2018-07-15T02:33:25.480Z,101331.62
2018-07-15T02:35:52.667Z,101333.14
2018-07-15T02:38:20.565Z,101333.11
2018-07-15T02:40:47.655Z,101335.84
2018-07-15T02:43:14.839Z,101324.18
2018-07-15T02:45:41.932Z,101324.52
2018-07-15T02:48:09.243Z,101334.09
2018-07-15T02:50:36.421Z,101326.42
2018-07-15T02:53:03.527Z,101328.05
2018-07-15T02:55:30.652Z,101326.42
2018-07-15T02:57:58.371Z,101326.98
2018-07-15T03:00:27.851Z,101324.70
2018-07-15T03:02:55.160Z,101337.00
2018-07-15T03:05:24.954Z,101336.05
2018-07-15T03:07:52.194Z,101341.83
2018-07-15T03:10:19.404Z,101342.25
2018-07-15T03:12:46.595Z,101333.81
2018-07-15T03:15:13.708Z,101332.59
2018-07-15T03:17:40.852Z,101331.11
2018-07-15T03:20:08.118Z,101329.73
2018-07-15T03:22:35.292Z,101337.09
2018-07-15T03:25:02.717Z,101345.69
2018-07-15T03:27:29.960Z,101336.70
2018-07-15T03:29:57.129Z,101338.00
2018-07-15T03:32:24.339Z,101335.36
2018-07-15T03:34:51.602Z,101333.85
2018-07-15T03:37:18.734Z,101331.51
2018-07-15T03:39:46.011Z,101335.89
2018-07-15T03:42:13.185Z,101337.98
2018-07-15T03:44:40.304Z,101339.70
2018-07-15T03:47:07.719Z,101342.42
2018-07-15T03:49:34.852Z,101341.53
2018-07-15T03:52:02.173Z,101337.57
2018-07-15T03:54:29.301Z,101343.27
2018-07-15T03:56:56.610Z,101342.48
2018-07-15T03:59:23.877Z,101342.91
2018-07-15T04:01:51.211Z,101338.11
2018-07-15T04:04:18.365Z,101336.64
2018-07-15T04:06:45.462Z,101343.19
2018-07-15T04:09:12.938Z,101346.52
2018-07-15T04:11:40.208Z,101342.77
2018-07-15T04:14:07.389Z,101348.87
2018-07-15T04:16:34.614Z,101345.45
2018-07-15T04:19:01.916Z,101350.44
2018-07-15T04:21:29.089Z,101347.12
2018-07-15T04:23:56.336Z,101352.05
2018-07-15T04:26:24.135Z,101349.08
2018-07-15T04:28:51.285Z,101346.72
2018-07-15T04:31:18.589Z,101348.41
2018-07-15T04:33:45.756Z,101349.06
2018-07-15T04:36:12.892Z,101349.30
2018-07-15T04:38:40.141Z,101349.35
2018-07-15T04:41:07.289Z,101350.75
2018-07-15T04:43:34.387Z,101351.50
2018-07-15T04:46:01.527Z,101350.93
2018-07-15T04:48:28.723Z,101348.42
2018-07-15T04:50:56.677Z,101351.64
2018-07-15T04:53:23.857Z,101352.39
2018-07-15T04:55:51.054Z,101354.17
2018-07-15T04:58:18.301Z,101353.56
2018-07-15T05:00:46.008Z,101357.30
2018-07-15T05:03:13.223Z,101360.13
2018-07-15T05:05:40.323Z,101362.69
2018-07-15T05:08:08.781Z,101365.84
2018-07-15T05:10:37.119Z,101366.68
2018-07-15T05:13:05.054Z,101368.33
2018-07-15T05:15:33.477Z,101363.74
2018-07-15T05:18:02.263Z,101367.59
2018-07-15T05:20:30.846Z,101365.34
2018-07-15T05:22:58.964Z,101370.36
2018-07-15T05:25:28.931Z,101378.63
2018-07-15T05:27:58.561Z,101385.61
2018-07-15T05:30:27.442Z,101390.29
2018-07-15T05:32:57.728Z,101394.70
2018-07-15T05:35:27.016Z,101386.09
2018-07-15T05:37:57.074Z,101382.55
2018-07-15T05:40:29.469Z,101388.30
2018-07-15T05:43:01.502Z,101391.77
2018-07-15T05:45:29.726Z,101387.74
2018-07-15T05:47:57.877Z,101376.66
2018-07-15T05:50:27.051Z,101379.52
2018-07-15T05:52:57.319Z,101384.07
2018-07-15T05:55:28.221Z,101386.27
2018-07-15T05:58:00.466Z,101391.50
2018-07-15T06:00:32.127Z,101386.37
2018-07-15T06:03:01.928Z,101384.49
2018-07-15T06:05:34.151Z,101382.54
2018-07-15T06:08:04.994Z,101384.98
2018-07-15T06:10:34.311Z,101382.59
2018-07-15T06:13:03.514Z,101389.63
2018-07-15T06:15:32.703Z,101393.27
2018-07-15T06:18:01.650Z,101384.59
2018-07-15T06:20:30.738Z,101388.92
2018-07-15T06:23:00.305Z,101382.09
2018-07-15T06:25:28.900Z,101386.17
2018-07-15T06:27:57.206Z,101384.73
2018-07-15T06:30:27.271Z,101384.21
2018-07-15T06:32:56.409Z,101373.11
2018-07-15T06:35:23.657Z,101370.64
2018-07-15T06:37:51.879Z,101376.89
2018-07-15T06:40:23.471Z,101373.95
2018-07-15T06:42:50.699Z,101378.27
2018-07-15T06:45:17.852Z,101366.39
2018-07-15T06:47:45.076Z,101366.38
2018-07-15T06:50:12.269Z,101371.83
2018-07-15T06:52:39.396Z,101378.19
2018-07-15T06:55:06.957Z,101373.46
2018-07-15T06:57:34.130Z,101372.95
2018-07-15T07:00:01.358Z,101367.06
2018-07-15T07:02:28.739Z,101370.19
2018-07-15T07:04:56.005Z,101363.72
2018-07-15T07:07:23.370Z,101370.81
2018-07-15T07:09:50.564Z,101363.67
2018-07-15T07:12:17.702Z,101368.56
2018-07-15T07:14:44.837Z,101365.92
2018-07-15T07:17:12.054Z,101363.95
2018-07-15T07:19:39.219Z,101360.66
2018-07-15T07:22:06.344Z,101367.95
2018-07-15T07:24:33.747Z,101366.14
2018-07-15T07:27:00.845Z,101363.53
2018-07-15T07:29:28.005Z,101360.17
2018-07-15T07:31:55.354Z,101363.52
2018-07-15T07:34:29.987Z,101361.00
2018-07-15T07:36:57.245Z,101361.98
2018-07-15T07:39:24.809Z,101360.25
2018-07-15T07:41:51.976Z,101355.75
2018-07-15T07:44:19.429Z,101356.69
2018-07-15T07:46:46.592Z,101360.48
2018-07-15T07:49:13.884Z,101359.73
2018-07-15T07:51:41.043Z,101358.06
2018-07-15T07:54:08.214Z,101361.66
2018-07-15T07:56:35.410Z,101353.73
2018-07-15T07:59:02.757Z,101355.36
2018-07-15T08:01:29.968Z,101350.61
2018-07-15T08:03:57.782Z,101354.43
2018-07-15T08:06:25.111Z,101365.50
2018-07-15T08:08:52.270Z,101354.83
2018-07-15T08:11:19.553Z,101354.26
2018-07-15T08:13:46.690Z,101344.85
2018-07-15T08:16:13.834Z,101345.34
2018-07-15T08:18:41.116Z,101341.23
2018-07-15T08:21:09.385Z,101345.07
2018-07-15T08:23:36.494Z,101351.30
2018-07-15T08:26:03.695Z,101349.65
2018-07-15T08:28:31.384Z,101350.69
2018-07-15T08:31:10.246Z,101347.23
2018-07-15T08:33:37.541Z,101356.57
2018-07-15T08:36:04.803Z,101349.92
2018-07-15T08:38:31.958Z,101342.80
2018-07-15T08:40:59.105Z,101350.09
2018-07-15T08:43:26.220Z,101349.69
2018-07-15T08:45:53.697Z,101346.98
2018-07-15T08:48:20.981Z,101348.02
2018-07-15T08:50:48.422Z,101350.59
2018-07-15T08:53:15.620Z,101342.44
2018-07-15T08:55:44.339Z,101342.96
2018-07-15T08:58:11.541Z,101338.63
2018-07-15T09:00:38.652Z,101344.77
2018-07-15T09:03:06.004Z,101344.53
2018-07-15T09:05:34.693Z,101344.47
2018-07-15T09:08:02.021Z,101339.72
2018-07-15T09:10:29.176Z,101334.08
2018-07-15T09:12:56.273Z,101336.66
2018-07-15T09:15:23.399Z,101341.19
2018-07-15T09:17:51.088Z,101345.44
2018-07-15T09:20:18.241Z,101342.73
2018-07-15T09:22:45.412Z,101340.35
2018-07-15T09:25:12.931Z,101335.45
2018-07-15T09:27:40.037Z,101334.86
2018-07-15T09:30:07.688Z,101337.20
2018-07-15T09:32:34.886Z,101338.31
2018-07-15T09:35:02.014Z,101342.02
2018-07-15T09:37:29.134Z,101339.40
2018-07-15T09:39:57.048Z,101335.37
2018-07-15T09:42:24.205Z,101331.63
2018-07-15T09:44:51.450Z,101336.86
2018-07-15T09:47:18.952Z,101340.23
2018-07-15T09:49:46.152Z,101336.14
2018-07-15T09:52:13.798Z,101328.95
2018-07-15T09:54:40.971Z,101332.27
2018-07-15T09:57:08.076Z,101329.83
2018-07-15T09:59:35.187Z,101331.72
2018-07-15T10:02:02.335Z,101338.25
2018-07-15T10:04:29.427Z,101331.13
2018-07-15T10:06:56.549Z,101331.63
2018-07-15T10:09:23.726Z,101330.28
2018-07-15T10:11:51.589Z,101335.13
2018-07-15T10:14:18.805Z,101332.12
2018-07-15T10:16:46.042Z,101337.11
2018-07-15T10:19:13.306Z,101326.58
2018-07-15T10:21:40.468Z,101321.56
2018-07-15T10:24:08.138Z,101320.93
2018-07-15T10:26:35.320Z,101320.45
2018-07-15T10:29:02.867Z,101317.81
2018-07-15T10:31:30.040Z,101321.48
2018-07-15T10:33:58.574Z,101319.44
2018-07-15T10:36:25.768Z,101316.73
2018-07-15T10:38:53.020Z,101315.83
2018-07-15T10:41:20.167Z,101322.84
2018-07-15T10:43:49.200Z,101316.91
2018-07-15T10:46:16.489Z,101312.47
2018-07-15T10:48:43.842Z,101303.39
2018-07-15T10:51:10.974Z,101307.58
2018-07-15T10:53:38.147Z,101309.95
2018-07-15T10:56:05.308Z,101311.56
2018-07-15T10:58:32.952Z,101314.26
2018-07-15T11:01:00.208Z,101308.30
2018-07-15T11:03:27.304Z,101309.66
2018-07-15T11:05:54.537Z,101301.52
2018-07-15T11:08:21.746Z,101295.70
2018-07-15T11:10:48.922Z,101298.61
2018-07-15T11:13:17.063Z,101302.14
2018-07-15T11:15:44.316Z,101298.63
2018-07-15T11:18:11.547Z,101291.33
2018-07-15T11:20:38.691Z,101287.59
2018-07-15T11:23:05.939Z,101284.45
2018-07-15T11:25:33.459Z,101278.08
2018-07-15T11:28:00.592Z,101277.94
2018-07-15T11:30:28.000Z,101272.61
2018-07-15T11:32:55.110Z,101273.47
2018-07-15T11:35:22.319Z,101269.39
2018-07-15T11:37:49.984Z,101266.72
2018-07-15T11:40:17.376Z,101277.79
2018-07-15T11:42:44.598Z,101271.66
2018-07-15T11:45:11.747Z,101271.11
2018-07-15T11:47:39.069Z,101268.42
2018-07-15T11:50:06.273Z,101265.17
2018-07-15T11:52:33.562Z,101256.70
2018-07-15T11:55:00.776Z,101253.01
2018-07-15T11:57:27.890Z,101246.48
2018-07-15T11:59:55.092Z,101245.77
2018-07-15T12:02:22.604Z,101245.03
2018-07-15T12:04:50.025Z,101246.14
2018-07-15T12:07:17.903Z,101250.73
2018-07-15T12:09:46.024Z,101237.61
2018-07-15T12:12:13.149Z,101239.52
2018-07-15T12:14:40.313Z,101235.20
2018-07-15T12:17:07.667Z,101232.98
2018-07-15T12:19:34.921Z,101233.45
2018-07-15T12:22:02.080Z,101227.31
2018-07-15T12:24:29.177Z,101234.80
2018-07-15T12:26:56.291Z,101220.83
2018-07-15T12:29:23.568Z,101221.91
2018-07-15T12:31:50.832Z,101224.08
2018-07-15T12:34:18.264Z,101224.34
2018-07-15T12:36:46.788Z,101217.19
2018-07-15T12:39:13.906Z,101212.84
2018-07-15T12:41:41.032Z,101204.80
2018-07-15T12:44:08.543Z,101211.73
2018-07-15T12:46:35.891Z,101204.73
2018-07-15T12:49:03.136Z,101204.60
2018-07-15T12:51:30.432Z,101191.81
2018-07-15T12:53:57.583Z,101192.44
2018-07-15T12:56:24.881Z,101188.23
2018-07-15T12:58:52.494Z,101192.90
2018-07-15T13:01:19.785Z,101197.28
2018-07-15T13:03:47.059Z,101192.56
2018-07-15T13:06:14.281Z,101191.27
2018-07-15T13:08:41.504Z,101193.36
2018-07-15T13:11:11.045Z,101187.25
2018-07-15T13:13:38.285Z,101185.02
2018-07-15T13:16:05.420Z,101185.05
2018-07-15T13:18:32.538Z,101185.99
2018-07-15T13:20:59.798Z,101175.27
2018-07-15T13:23:27.160Z,101173.84
2018-07-15T13:25:54.385Z,101169.61
2018-07-15T13:28:21.672Z,101174.36
2018-07-15T13:30:48.944Z,101168.53
2018-07-15T13:33:17.160Z,101167.16
2018-07-15T13:35:44.919Z,101165.22
2018-07-15T13:38:12.973Z,101165.72
2018-07-15T13:40:40.206Z,101164.22
2018-07-15T13:43:07.588Z,101155.14
2018-07-15T13:45:34.795Z,101154.55
2018-07-15T13:48:01.911Z,101159.28
2018-07-15T13:50:29.330Z,101159.05
2018-07-15T13:52:56.802Z,101158.61
2018-07-15T13:55:23.996Z,101153.06
2018-07-15T13:57:51.405Z,101159.69
2018-07-15T14:00:18.734Z,101149.87
2018-07-15T14:02:45.902Z,101154.67
2018-07-15T14:05:13.063Z,101160.30
2018-07-15T14:07:40.188Z,101149.37
2018-07-15T14:10:07.402Z,101147.63
2018-07-15T14:12:34.566Z,101146.53
2018-07-15T14:15:01.732Z,101142.48
2018-07-15T14:17:28.865Z,101146.20
2018-07-15T14:19:56.068Z,101144.56
2018-07-15T14:22:23.412Z,101138.46
2018-07-15T14:24:50.902Z,101133.64
2018-07-15T14:27:18.220Z,101129.86
2018-07-15T14:29:45.406Z,101127.66
2018-07-15T14:32:12.540Z,101118.95
2018-07-15T14:34:39.851Z,101117.38
2018-07-15T14:37:06.962Z,101115.95
2018-07-15T14:39:37.251Z,101106.15
2018-07-15T14:42:04.933Z,101110.96
2018-07-15T14:44:32.039Z,101106.88
2018-07-15T14:47:00.080Z,101103.45
2018-07-15T14:49:27.431Z,101098.55
2018-07-15T14:51:54.649Z,101105.11
2018-07-15T14:54:21.976Z,101100.61
2018-07-15T14:56:49.307Z,101096.62
2018-07-15T14:59:17.002Z,101091.20
2018-07-15T15:01:44.148Z,101087.73
2018-07-15T15:04:11.366Z,101088.21
2018-07-15T15:06:38.512Z,101089.02
2018-07-15T15:09:06.805Z,101093.91
2018-07-15T15:11:34.206Z,101094.91
2018-07-15T15:14:01.396Z,101087.95
2018-07-15T15:16:28.629Z,101080.91
2018-07-15T15:18:55.854Z,101080.23
2018-07-15T15:21:24.032Z,101084.17
2018-07-15T15:23:51.356Z,101092.41
2018-07-15T15:26:18.500Z,101080.81
2018-07-15T15:28:46.609Z,101085.61
2018-07-15T15:31:13.745Z,101087.66
2018-07-15T15:33:40.983Z,101081.98
2018-07-15T15:36:08.265Z,101075.75
2018-07-15T15:38:35.490Z,101079.55
2018-07-15T15:41:03.099Z,101080.38
2018-07-15T15:43:30.694Z,101075.03
2018-07-15T15:45:58.465Z,101072.45
2018-07-15T15:48:26.175Z,101066.88
2018-07-15T15:50:53.331Z,101070.28
2018-07-15T15:53:20.456Z,101060.21
2018-07-15T15:55:48.115Z,101062.52
2018-07-15T15:58:15.430Z,101067.29
2018-07-15T16:00:42.650Z,101062.12
2018-07-15T16:03:09.853Z,101055.04
2018-07-15T16:05:37.371Z,101050.52
2018-07-15T16:08:05.470Z,101049.33
2018-07-15T16:10:34.848Z,101043.83
2018-07-15T16:13:02.179Z,101048.27
2018-07-15T16:15:30.679Z,101041.88
2018-07-15T16:17:59.534Z,101040.63
2018-07-15T16:20:27.653Z,101042.59
2018-07-15T16:22:54.911Z,101038.66
2018-07-15T16:25:22.771Z,101041.16
2018-07-15T16:27:49.919Z,101039.91
2018-07-15T16:30:17.065Z,101037.26
2018-07-15T16:32:44.212Z,101034.63
2018-07-15T16:35:11.426Z,101034.95
2018-07-15T16:37:38.617Z,101031.76
2018-07-15T16:40:06.150Z,101032.21
2018-07-15T16:42:33.567Z,101031.16
2018-07-15T16:45:02.008Z,101037.92
2018-07-15T16:47:29.762Z,101037.55
2018-07-15T16:49:58.567Z,101035.00
2018-07-15T16:52:26.214Z,101036.72
2018-07-15T16:54:58.239Z,101032.12
2018-07-15T16:57:25.457Z,101025.14
2018-07-15T16:59:53.484Z,101029.40
2018-07-15T17:02:20.691Z,101027.92
2018-07-15T17:04:47.884Z,101024.41
2018-07-15T17:07:15.059Z,101023.28
2018-07-15T17:09:42.222Z,101030.27
2018-07-15T17:12:09.429Z,101025.47
2018-07-15T17:14:36.625Z,101028.22
2018-07-15T17:17:04.155Z,101026.28
2018-07-15T17:19:31.335Z,101022.61
2018-07-15T17:21:58.873Z,101019.81
2018-07-15T17:24:27.332Z,101018.70
2018-07-15T17:26:55.126Z,101024.69
2018-07-15T17:29:22.537Z,101018.57
2018-07-15T17:31:51.353Z,101024.16
2018-07-15T17:34:18.498Z,101025.37
2018-07-15T17:36:45.705Z,101023.66
2018-07-15T17:39:12.855Z,101024.27
2018-07-15T17:41:40.038Z,101025.12
2018-07-15T17:44:07.196Z,101029.17
2018-07-15T17:46:35.349Z,101029.20
2018-07-15T17:49:02.729Z,101028.55
2018-07-15T17:51:30.114Z,101028.08
2018-07-15T17:53:58.948Z,101025.79
2018-07-15T17:56:26.569Z,101027.47
2018-07-15T17:58:53.751Z,101026.78
2018-07-15T18:01:21.051Z,101023.10
2018-07-15T18:03:48.272Z,101028.95
2018-07-15T18:06:15.445Z,101029.25
2018-07-15T18:08:42.604Z,101026.06
2018-07-15T18:11:09.736Z,101025.42
2018-07-15T18:13:37.255Z,101027.88
2018-07-15T18:16:04.898Z,101030.33
2018-07-15T18:18:32.328Z,101031.28
2018-07-15T18:20:59.854Z,101032.77
2018-07-15T18:23:28.246Z,101024.86
2018-07-15T18:25:55.478Z,101030.25
2018-07-15T18:28:22.635Z,101032.55
2018-07-15T18:30:49.859Z,101032.94
2018-07-15T18:33:17.024Z,101035.27
2018-07-15T18:35:44.148Z,101042.47
2018-07-15T18:38:11.343Z,101046.77
2018-07-15T18:40:38.437Z,101044.30
2018-07-15T18:43:06.430Z,101044.90
2018-07-15T18:45:33.877Z,101047.21
2018-07-15T18:48:01.578Z,101045.12
2018-07-15T18:50:29.442Z,101047.13
2018-07-15T18:52:58.804Z,101047.41
2018-07-15T18:55:26.446Z,101047.30
2018-07-15T18:57:53.623Z,101049.30
2018-07-15T19:00:20.809Z,101049.09
2018-07-15T19:02:48.059Z,101054.05
2018-07-15T19:05:15.195Z,101053.83
2018-07-15T19:07:42.451Z,101061.06
2018-07-15T19:10:09.584Z,101057.52
2018-07-15T19:12:36.925Z,101062.07
2018-07-15T19:15:04.484Z,101063.22
2018-07-15T19:17:31.887Z,101076.36
2018-07-15T19:19:59.601Z,101067.43
2018-07-15T19:22:28.332Z,101069.69
2018-07-15T19:24:55.871Z,101066.12
2018-07-15T19:27:23.068Z,101078.56
2018-07-15T19:29:50.199Z,101075.08
2018-07-15T19:32:17.385Z,101073.91
2018-07-15T19:34:44.626Z,101075.52
2018-07-15T19:37:11.788Z,101078.16
2018-07-15T19:39:40.006Z,101081.80
2018-07-15T19:42:07.236Z,101075.55
2018-07-15T19:44:34.852Z,101088.97
2018-07-15T19:47:02.404Z,101080.52
2018-07-15T19:49:30.671Z,101080.63
2018-07-15T19:51:59.073Z,101076.95
2018-07-15T19:54:27.588Z,101081.92
2018-07-15T19:56:54.712Z,101087.66
2018-07-15T19:59:22.066Z,101081.22
2018-07-15T20:01:55.941Z,101086.81
2018-07-15T20:04:23.535Z,101083.75
2018-07-15T20:06:51.461Z,101086.71
2018-07-15T20:09:18.647Z,101085.70
2018-07-15T20:11:47.941Z,101088.55
2018-07-15T20:14:15.245Z,101090.99
2018-07-15T20:16:43.601Z,101093.51
2018-07-15T20:19:11.997Z,101097.65
2018-07-15T20:21:39.490Z,101097.23
2018-07-15T20:24:07.237Z,101096.62
2018-07-15T20:26:35.131Z,101088.91
2018-07-15T20:29:04.041Z,101091.41
2018-07-15T20:31:31.235Z,101087.33
2018-07-15T20:33:58.470Z,101087.94
2018-07-15T20:36:25.570Z,101085.11
2018-07-15T20:38:53.709Z,101087.65
2018-07-15T20:41:20.880Z,101083.27
2018-07-15T20:43:48.057Z,101079.88
2018-07-15T20:46:15.377Z,101079.20
2018-07-15T20:48:43.042Z,101079.44
2018-07-15T20:51:10.736Z,101074.72
2018-07-15T20:53:38.494Z,101073.25
2018-07-15T20:56:05.867Z,101070.36
2018-07-15T20:58:33.493Z,101077.20
2018-07-15T21:01:00.737Z,101080.96
2018-07-15T21:03:28.892Z,101080.69
2018-07-15T21:05:56.078Z,101080.19
2018-07-15T21:08:23.154Z,101078.11
2018-07-15T21:10:50.426Z,101083.03
2018-07-15T21:13:17.565Z,101079.91
2018-07-15T21:15:44.960Z,101079.41
2018-07-15T21:18:12.376Z,101080.22
2018-07-15T21:20:39.790Z,101076.33
2018-07-15T21:23:07.735Z,101080.44
2018-07-15T21:25:34.958Z,101081.55
2018-07-15T21:28:02.088Z,101083.28
2018-07-15T21:30:29.227Z,101082.05
2018-07-15T21:32:56.435Z,101082.75
2018-07-15T21:35:23.586Z,101081.18
2018-07-15T21:37:50.852Z,101094.47
2018-07-15T21:40:18.077Z,101094.19
2018-07-15T21:42:45.203Z,101093.19
2018-07-15T21:45:12.325Z,101096.83
2018-07-15T21:47:40.169Z,101092.28
2018-07-15T21:50:07.334Z,101093.20
2018-07-15T21:52:34.584Z,101096.59
2018-07-15T21:55:01.749Z,101098.33
2018-07-15T21:57:28.912Z,101096.80
2018-07-15T21:59:56.044Z,101097.27
2018-07-15T22:02:23.188Z,101094.84
2018-07-15T22:04:50.317Z,101095.56
2018-07-15T22:07:29.785Z,101094.36
2018-07-15T22:10:04.249Z,101110.23
2018-07-15T22:12:31.460Z,101114.02
2018-07-15T22:14:58.675Z,101118.47
2018-07-15T22:17:25.812Z,101118.27
2018-07-15T22:19:54.023Z,101116.70
2018-07-15T22:22:21.118Z,101121.23
2018-07-15T22:24:48.219Z,101124.05
2018-07-15T22:27:15.371Z,101117.82
2018-07-15T22:29:42.488Z,101118.08
2018-07-15T22:32:09.686Z,101120.89
2018-07-15T22:34:36.870Z,101120.02
2018-07-15T22:37:04.007Z,101115.02
2018-07-15T22:39:31.123Z,101115.78
2018-07-15T22:41:58.398Z,101116.70
2018-07-15T22:44:25.542Z,101115.31
2018-07-15T22:46:52.724Z,101120.57
2018-07-15T22:49:20.668Z,101117.67
2018-07-15T22:51:47.832Z,101113.34
2018-07-15T22:54:14.904Z,101115.48
2018-07-15T22:56:42.036Z,101114.61
2018-07-15T22:59:09.123Z,101119.51
2018-07-15T23:01:36.671Z,101124.36
2018-07-15T23:04:03.851Z,101118.13
2018-07-15T23:06:31.075Z,101112.56
2018-07-15T23:08:58.220Z,101110.83
2018-07-15T23:11:25.385Z,101108.98
2018-07-15T23:13:52.535Z,101110.02
2018-07-15T23:16:19.672Z,101113.99
2018-07-15T23:18:47.339Z,101113.07
2018-07-15T23:21:15.016Z,101110.42
2018-07-15T23:23:42.091Z,101109.50
2018-07-15T23:26:09.261Z,101106.25
2018-07-15T23:28:36.388Z,101112.02
2018-07-15T23:31:03.496Z,101107.98
2018-07-15T23:33:30.655Z,101110.98
2018-07-15T23:35:58.677Z,101113.75
2018-07-15T23:38:25.815Z,101114.61
2018-07-15T23:40:53.008Z,101119.51
2018-07-15T23:43:21.001Z,101117.86
2018-07-15T23:45:48.140Z,101118.02
2018-07-15T23:48:15.348Z,101115.37
2018-07-15T23:50:42.457Z,101118.22
2018-07-15T23:53:09.573Z,101120.46
2018-07-15T23:55:36.703Z,101122.70
2018-07-15T23:58:04.771Z,101126.33
